createdAt,value
2023-02-17T00:02:09.800Z,23.90
2023-02-17T00:04:39.240Z,22.87
2023-02-17T00:07:08.685Z,21.82
2023-02-17T00:09:38.845Z,22.27
2023-02-17T00:12:08.521Z,21.97
2023-02-17T00:14:40.929Z,21.25
2023-02-17T00:17:11.403Z,21.07
2023-02-17T00:19:41.036Z,19.77
2023-02-17T00:22:11.819Z,19.65
2023-02-17T00:24:42.125Z,20.52
2023-02-17T00:27:11.830Z,19.67
2023-02-17T00:29:41.264Z,19.15
2023-02-17T00:32:10.924Z,19.65
2023-02-17T00:34:40.634Z,20.88
2023-02-17T00:37:10.131Z,19.15
2023-02-17T00:39:39.618Z,18.10
2023-02-17T00:42:09.126Z,19.62
2023-02-17T00:44:38.616Z,19.60
2023-02-17T00:47:08.126Z,19.52
2023-02-17T00:49:38.139Z,20.03
2023-02-17T00:52:07.578Z,21.60
2023-02-17T00:54:37.360Z,20.52
2023-02-17T00:57:07.675Z,20.32
2023-02-17T00:59:37.973Z,20.23
2023-02-17T01:02:09.756Z,18.93
2023-02-17T01:04:39.297Z,19.70
2023-02-17T01:07:08.826Z,19.75
2023-02-17T01:09:38.257Z,19.85
2023-02-17T01:12:07.909Z,18.62
2023-02-17T01:14:37.333Z,19.67
2023-02-17T01:17:06.907Z,19.10
2023-02-17T01:19:36.894Z,17.40
2023-02-17T01:22:07.136Z,18.45
2023-02-17T01:24:36.754Z,18.82
2023-02-17T01:27:06.257Z,19.02
2023-02-17T01:29:35.893Z,17.67
2023-02-17T01:32:06.580Z,17.42
2023-02-17T01:34:36.675Z,18.10
2023-02-17T01:37:08.179Z,16.50
2023-02-17T01:39:40.718Z,16.85
2023-02-17T01:42:18.962Z,15.75
2023-02-17T01:45:19.027Z,17.67
2023-02-17T01:47:51.566Z,16.32
2023-02-17T01:50:24.072Z,17.05
2023-02-17T01:52:57.469Z,17.02
2023-02-17T01:57:59.685Z,15.75
2023-02-17T02:00:31.242Z,15.65
2023-02-17T02:03:03.326Z,16.10
2023-02-17T02:05:34.465Z,16.17
2023-02-17T02:08:04.951Z,15.75
2023-02-17T02:10:35.885Z,16.83
2023-02-17T02:13:09.432Z,16.07
2023-02-17T02:15:54.193Z,15.50
2023-02-17T02:18:47.112Z,15.80
2023-02-17T02:21:37.517Z,16.75
2023-02-17T02:24:35.745Z,16.65
2023-02-17T02:27:16.826Z,16.75
2023-02-17T02:30:11.818Z,16.10
2023-02-17T02:32:44.377Z,15.85
2023-02-17T02:35:23.392Z,14.78
2023-02-17T02:38:01.921Z,16.17
2023-02-17T02:40:34.982Z,15.20
2023-02-17T02:43:06.899Z,14.78
2023-02-17T02:48:06.250Z,14.78
2023-02-17T02:50:39.572Z,15.93
2023-02-17T02:53:28.625Z,14.28
2023-02-17T02:56:10.196Z,15.93
2023-02-17T02:58:45.745Z,15.23
2023-02-17T03:01:33.942Z,15.23
2023-02-17T03:04:15.546Z,15.32
2023-02-17T03:06:51.998Z,15.53
2023-02-17T03:09:25.272Z,15.55
2023-02-17T03:11:59.828Z,14.87
2023-02-17T03:14:34.021Z,15.63
2023-02-17T03:17:04.032Z,15.38
2023-02-17T03:19:33.585Z,14.78
2023-02-17T03:22:09.452Z,15.50
2023-02-17T03:25:41.236Z,14.87
2023-02-17T03:28:11.085Z,15.00
2023-02-17T03:30:41.222Z,15.28
2023-02-17T03:33:10.713Z,15.18
2023-02-17T03:35:40.337Z,14.70
2023-02-17T03:38:09.797Z,14.58
2023-02-17T03:40:39.220Z,15.28
2023-02-17T03:43:08.849Z,15.63
2023-02-17T03:45:40.075Z,14.40
2023-02-17T03:48:10.040Z,15.23
2023-02-17T03:50:39.453Z,14.13
2023-02-17T03:53:08.919Z,14.60
2023-02-17T03:55:38.463Z,15.83
2023-02-17T03:58:07.965Z,16.23
2023-02-17T04:00:37.958Z,14.58
2023-02-17T04:03:07.387Z,15.55
2023-02-17T04:05:36.954Z,15.40
2023-02-17T04:08:06.452Z,14.53
2023-02-17T04:10:35.869Z,14.28
2023-02-17T04:13:05.358Z,15.72
2023-02-17T04:15:36.383Z,14.00
2023-02-17T04:18:05.929Z,14.63
2023-02-17T04:20:36.338Z,13.95
2023-02-17T04:23:05.837Z,15.20
2023-02-17T04:25:36.992Z,14.50
2023-02-17T04:28:09.310Z,14.50
2023-02-17T04:30:39.621Z,14.87
2023-02-17T04:33:09.053Z,14.13
2023-02-17T04:35:38.472Z,14.30
2023-02-17T04:38:10.462Z,13.28
2023-02-17T04:40:40.175Z,14.00
2023-02-17T04:43:09.738Z,14.03
2023-02-17T04:45:39.416Z,14.43
2023-02-17T04:48:08.984Z,13.70
2023-02-17T04:50:38.404Z,14.55
2023-02-17T04:53:11.541Z,14.30
2023-02-17T04:55:43.195Z,14.10
2023-02-17T04:58:12.736Z,13.60
2023-02-17T05:00:42.209Z,13.50
2023-02-17T05:03:11.647Z,14.10
2023-02-17T05:05:41.273Z,14.13
2023-02-17T05:08:10.769Z,14.58
2023-02-17T05:10:40.333Z,13.85
2023-02-17T05:13:10.057Z,14.50
2023-02-17T05:15:39.586Z,15.35
2023-02-17T05:18:09.084Z,14.87
2023-02-17T05:20:39.173Z,14.55
2023-02-17T05:23:08.748Z,15.28
2023-02-17T05:25:38.168Z,14.75
2023-02-17T05:28:07.802Z,14.63
2023-02-17T05:30:37.237Z,14.13
2023-02-17T05:33:06.900Z,13.35
2023-02-17T05:35:39.925Z,14.95
2023-02-17T05:38:10.017Z,13.60
2023-02-17T05:40:39.514Z,14.00
2023-02-17T05:43:09.073Z,15.03
2023-02-17T05:45:38.652Z,14.10
2023-02-17T05:48:08.246Z,14.95
2023-02-17T05:50:37.678Z,13.28
2023-02-17T05:53:07.242Z,14.63
2023-02-17T05:55:36.842Z,13.53
2023-02-17T05:58:06.337Z,14.38
2023-02-17T06:00:36.056Z,14.73
2023-02-17T06:03:05.810Z,14.00
2023-02-17T06:05:36.071Z,14.58
2023-02-17T06:08:05.696Z,14.78
2023-02-17T06:10:35.208Z,14.68
2023-02-17T06:13:04.634Z,13.90
2023-02-17T06:15:34.109Z,14.10
2023-02-17T06:18:03.536Z,14.05
2023-02-17T06:20:32.973Z,15.40
2023-02-17T06:23:02.838Z,14.10
2023-02-17T06:25:32.340Z,15.18
2023-02-17T06:28:01.772Z,13.53
2023-02-17T06:30:31.718Z,14.87
2023-02-17T06:33:02.694Z,15.00
2023-02-17T06:35:32.123Z,13.90
2023-02-17T06:38:02.441Z,14.78
2023-02-17T06:40:31.875Z,15.48
2023-02-17T06:43:01.306Z,14.10
2023-02-17T06:45:31.027Z,14.70
2023-02-17T06:48:00.521Z,15.10
2023-02-17T06:50:30.026Z,15.30
2023-02-17T06:52:59.912Z,13.68
2023-02-17T06:55:29.348Z,13.93
2023-02-17T06:57:59.029Z,16.50
2023-02-17T07:00:28.593Z,14.85
2023-02-17T07:02:58.094Z,13.93
2023-02-17T07:05:27.977Z,14.50
2023-02-17T07:08:00.824Z,15.30
2023-02-17T07:10:31.520Z,14.65
2023-02-17T07:13:01.109Z,15.38
2023-02-17T07:15:30.595Z,15.23
2023-02-17T07:18:00.365Z,15.85
2023-02-17T07:20:31.468Z,14.75
2023-02-17T07:23:02.278Z,15.58
2023-02-17T07:25:31.874Z,15.45
2023-02-17T07:28:02.467Z,16.27
2023-02-17T07:30:32.003Z,17.20
2023-02-17T07:33:01.495Z,17.55
2023-02-17T07:35:30.975Z,16.80
2023-02-17T07:38:01.943Z,16.85
2023-02-17T07:40:45.583Z,15.90
2023-02-17T07:43:15.009Z,16.87
2023-02-17T07:45:46.348Z,16.85
2023-02-17T07:48:15.903Z,15.68
2023-02-17T07:50:45.326Z,16.65
2023-02-17T07:53:15.158Z,15.35
2023-02-17T07:55:44.665Z,16.12
2023-02-17T07:58:14.213Z,15.50
2023-02-17T08:00:44.061Z,14.58
2023-02-17T08:03:13.577Z,15.13
2023-02-17T08:05:43.642Z,15.13
2023-02-17T08:08:50.664Z,15.08
2023-02-17T08:11:38.053Z,15.88
2023-02-17T08:14:08.062Z,17.10
2023-02-17T08:16:37.631Z,16.35
2023-02-17T08:19:07.669Z,17.20
2023-02-17T08:21:37.292Z,15.88
2023-02-17T08:24:07.128Z,15.83
2023-02-17T08:26:36.663Z,16.48
2023-02-17T08:29:06.172Z,15.83
2023-02-17T08:31:38.717Z,15.98
2023-02-17T08:34:11.309Z,15.50
2023-02-17T08:39:17.756Z,14.00
2023-02-17T08:41:49.900Z,13.75
2023-02-17T08:44:24.067Z,14.63
2023-02-17T08:46:55.294Z,14.35
2023-02-17T08:49:29.073Z,14.15
2023-02-17T08:52:00.494Z,15.18
2023-02-17T08:54:30.972Z,13.55
2023-02-17T08:57:01.234Z,14.78
2023-02-17T08:59:31.009Z,13.20
2023-02-17T09:02:00.497Z,14.55
2023-02-17T09:04:30.747Z,14.33
2023-02-17T09:07:00.528Z,15.70
2023-02-17T09:09:30.807Z,15.08
2023-02-17T09:12:00.651Z,14.43
2023-02-17T09:14:31.903Z,15.05
2023-02-17T09:17:01.399Z,15.08
2023-02-17T09:19:31.077Z,15.78
2023-02-17T09:22:02.315Z,13.98
2023-02-17T09:24:33.469Z,15.32
2023-02-17T09:27:03.240Z,14.55
2023-02-17T09:29:32.849Z,15.25
2023-02-17T09:32:05.125Z,14.40
2023-02-17T09:34:40.415Z,15.23
2023-02-17T09:37:13.597Z,14.63
2023-02-17T09:39:43.041Z,13.60
2023-02-17T09:42:16.703Z,15.32
2023-02-17T09:44:49.193Z,14.45
2023-02-17T09:47:21.814Z,15.00
2023-02-17T09:49:54.519Z,13.83
2023-02-17T09:52:34.879Z,13.10
2023-02-17T09:55:10.398Z,13.68
2023-02-17T09:57:43.054Z,14.10
2023-02-17T10:00:17.099Z,14.78
2023-02-17T10:02:56.472Z,14.20
2023-02-17T10:05:29.086Z,13.45
2023-02-17T10:08:05.461Z,13.95
2023-02-17T10:10:39.492Z,12.80
2023-02-17T10:15:46.389Z,12.40
2023-02-17T10:18:22.157Z,13.35
2023-02-17T10:20:55.035Z,12.47
2023-02-17T10:23:27.802Z,13.13
2023-02-17T10:26:29.240Z,11.48
2023-02-17T10:29:01.919Z,11.45
2023-02-17T10:32:09.418Z,12.00
2023-02-17T10:35:00.335Z,11.80
2023-02-17T10:37:41.396Z,13.13
2023-02-17T10:40:19.766Z,11.70
2023-02-17T10:42:51.701Z,11.93
2023-02-17T10:45:32.068Z,13.88
2023-02-17T10:48:07.570Z,12.15
2023-02-17T10:50:39.769Z,11.65
2023-02-17T10:53:23.152Z,12.15
2023-02-17T10:56:14.793Z,11.20
2023-02-17T10:58:53.264Z,11.35
2023-02-17T11:01:24.296Z,12.03
2023-02-17T11:04:05.838Z,10.98
2023-02-17T11:06:41.622Z,10.70
2023-02-17T11:09:27.737Z,12.13
2023-02-17T11:12:03.609Z,11.33
2023-02-17T11:14:34.965Z,10.75
2023-02-17T11:17:07.807Z,11.20
2023-02-17T11:19:38.579Z,10.72
2023-02-17T11:22:27.436Z,11.48
2023-02-17T11:25:04.264Z,10.60
2023-02-17T11:27:33.864Z,10.03
2023-02-17T11:30:18.744Z,11.15
2023-02-17T11:32:49.551Z,10.98
2023-02-17T11:35:27.684Z,10.57
2023-02-17T11:38:05.368Z,10.70
2023-02-17T11:40:36.240Z,10.72
2023-02-17T11:43:07.698Z,10.98
2023-02-17T11:45:46.420Z,10.82
2023-02-17T11:48:42.090Z,11.65
2023-02-17T11:51:17.509Z,11.10
2023-02-17T11:53:56.315Z,10.85
2023-02-17T11:56:31.292Z,11.63
2023-02-17T11:59:21.232Z,11.44
2023-02-17T12:01:59.304Z,11.00
2023-02-17T12:04:34.827Z,10.48
2023-02-17T12:07:22.379Z,11.57
2023-02-17T12:10:10.326Z,11.22
2023-02-17T12:12:57.514Z,10.20
2023-02-17T12:15:51.325Z,9.90
2023-02-17T12:18:32.926Z,10.43
2023-02-17T12:21:14.424Z,9.88
2023-02-17T12:23:58.979Z,9.48
2023-02-17T12:26:41.049Z,9.78
2023-02-17T12:29:13.560Z,8.73
2023-02-17T12:32:13.962Z,8.73
2023-02-17T12:34:54.135Z,10.15
2023-02-17T12:37:26.654Z,8.80
2023-02-17T12:40:04.954Z,9.53
2023-02-17T12:42:40.458Z,8.80
2023-02-17T12:45:15.440Z,8.95
2023-02-17T12:47:55.391Z,9.10
2023-02-17T12:50:30.864Z,10.20
2023-02-17T12:53:03.444Z,9.20
2023-02-17T12:55:50.970Z,8.88
2023-02-17T12:58:23.662Z,9.23
2023-02-17T13:01:09.654Z,8.70
2023-02-17T13:03:39.324Z,9.30
2023-02-17T13:06:23.433Z,8.90
2023-02-17T13:08:56.205Z,8.25
2023-02-17T13:11:32.591Z,8.60
2023-02-17T13:14:28.261Z,9.75
2023-02-17T13:16:57.839Z,8.63
2023-02-17T13:19:35.565Z,8.65
2023-02-17T13:22:06.654Z,7.97
2023-02-17T13:24:39.567Z,8.55
2023-02-17T13:27:32.012Z,8.93
2023-02-17T13:30:10.350Z,7.85
2023-02-17T13:32:40.208Z,8.20
2023-02-17T13:35:12.733Z,8.00
2023-02-17T13:37:45.584Z,7.92
2023-02-17T13:40:23.113Z,7.53
2023-02-17T13:42:55.388Z,6.70
2023-02-17T13:45:31.309Z,6.92
2023-02-17T13:48:03.751Z,7.25
2023-02-17T13:50:39.633Z,8.00
2023-02-17T13:53:33.953Z,7.42
2023-02-17T13:56:12.679Z,8.03
2023-02-17T13:58:43.717Z,7.17
2023-02-17T14:01:19.042Z,7.40
2023-02-17T14:03:56.369Z,6.47
2023-02-17T14:06:41.010Z,6.62
2023-02-17T14:09:24.035Z,5.80
2023-02-17T14:11:55.867Z,5.92
2023-02-17T14:14:33.920Z,5.27
2023-02-17T14:17:07.469Z,5.50
2023-02-17T14:19:45.744Z,6.00
2023-02-17T14:22:29.905Z,8.05
2023-02-17T14:25:08.934Z,7.87
2023-02-17T14:27:47.636Z,8.25
2023-02-17T14:30:31.575Z,7.40
2023-02-17T14:33:08.815Z,7.22
2023-02-17T14:35:39.867Z,7.25
2023-02-17T14:38:12.286Z,7.25
2023-02-17T14:40:41.782Z,8.15
2023-02-17T14:43:11.210Z,8.30
2023-02-17T14:45:41.789Z,7.55
2023-02-17T14:48:11.559Z,6.40
2023-02-17T14:50:44.707Z,6.47
2023-02-17T14:53:27.646Z,7.40
2023-02-17T14:56:12.824Z,6.08
2023-02-17T14:58:42.374Z,6.72
2023-02-17T15:01:17.662Z,7.65
2023-02-17T15:03:48.598Z,6.75
2023-02-17T15:06:29.297Z,8.18
2023-02-17T15:08:58.054Z,7.00
2023-02-17T15:11:35.078Z,7.27
2023-02-17T15:14:08.508Z,7.42
2023-02-17T15:16:37.942Z,7.47
2023-02-17T15:19:07.446Z,7.08
2023-02-17T15:21:40.169Z,7.05
2023-02-17T15:24:18.475Z,7.92
2023-02-17T15:26:48.208Z,6.40
2023-02-17T15:29:20.624Z,7.67
2023-02-17T15:31:51.928Z,6.80
2023-02-17T15:34:24.362Z,7.20
2023-02-17T15:36:53.838Z,7.70
2023-02-17T15:39:23.284Z,7.37
2023-02-17T15:41:56.399Z,7.78
2023-02-17T15:44:28.887Z,7.70
2023-02-17T15:46:58.350Z,7.67
2023-02-17T15:49:27.772Z,7.35
2023-02-17T15:51:57.203Z,7.70
2023-02-17T15:54:26.900Z,7.85
2023-02-17T15:56:56.957Z,8.23
2023-02-17T15:59:29.487Z,7.97
2023-02-17T16:02:00.539Z,7.80
2023-02-17T16:04:31.557Z,7.83
2023-02-17T16:07:00.980Z,7.87
2023-02-17T16:09:30.557Z,6.85
2023-02-17T16:12:01.891Z,7.25
2023-02-17T16:14:36.592Z,7.47
2023-02-17T16:17:08.105Z,7.30
2023-02-17T16:19:37.550Z,7.30
2023-02-17T16:22:07.038Z,7.60
2023-02-17T16:24:37.429Z,7.12
2023-02-17T16:27:09.517Z,7.92
2023-02-17T16:29:39.318Z,7.90
2023-02-17T16:32:11.289Z,7.60
2023-02-17T16:34:41.091Z,8.18
2023-02-17T16:37:16.559Z,7.95
2023-02-17T16:39:48.004Z,8.25
2023-02-17T16:42:17.466Z,7.35
2023-02-17T16:44:48.389Z,8.10
2023-02-17T16:47:23.983Z,7.62
2023-02-17T16:49:53.946Z,8.15
2023-02-17T16:52:28.488Z,8.95
2023-02-17T16:54:58.604Z,9.65
2023-02-17T16:57:28.863Z,8.63
2023-02-17T16:59:58.360Z,8.90
2023-02-17T17:02:28.864Z,7.87
2023-02-17T17:05:00.030Z,8.18
2023-02-17T17:07:32.215Z,7.90
2023-02-17T17:10:15.778Z,9.20
2023-02-17T17:12:33.125Z,8.25
2023-02-17T17:15:04.961Z,8.10
2023-02-17T17:17:37.741Z,8.13
2023-02-17T17:20:11.140Z,8.15
2023-02-17T17:22:42.201Z,8.43
2023-02-17T17:25:12.365Z,7.92
2023-02-17T17:27:46.024Z,8.40
2023-02-17T17:30:18.582Z,7.67
2023-02-17T17:32:49.576Z,8.83
2023-02-17T17:35:20.311Z,8.58
2023-02-17T17:37:51.010Z,8.63
2023-02-17T17:40:26.536Z,7.95
2023-02-17T17:42:56.433Z,8.15
2023-02-17T17:45:27.152Z,7.95
2023-02-17T17:47:56.646Z,8.30
2023-02-17T17:50:26.164Z,8.00
2023-02-17T17:52:55.582Z,7.58
2023-02-17T17:55:26.024Z,8.18
2023-02-17T17:57:55.583Z,8.30
2023-02-17T18:00:25.396Z,8.93
2023-02-17T18:02:55.027Z,8.90
2023-02-17T18:05:24.599Z,8.30
2023-02-17T18:07:54.268Z,8.03
2023-02-17T18:10:24.234Z,8.98
2023-02-17T18:12:57.600Z,9.30
2023-02-17T18:15:27.633Z,9.57
2023-02-17T18:17:57.711Z,14.63
2023-02-17T18:20:27.376Z,11.43
2023-02-17T18:22:57.300Z,10.05
2023-02-17T18:25:26.861Z,10.38
2023-02-17T18:27:56.772Z,10.55
2023-02-17T18:30:27.673Z,10.95
2023-02-17T18:32:57.251Z,10.68
2023-02-17T18:35:26.755Z,10.67
2023-02-17T18:37:56.570Z,11.45
2023-02-17T18:40:27.712Z,9.90
2023-02-17T18:42:57.381Z,10.82
2023-02-17T18:45:26.968Z,14.40
2023-02-17T18:47:56.399Z,14.25
2023-02-17T18:50:26.974Z,13.35
2023-02-17T18:52:56.379Z,12.60
2023-02-17T18:55:25.823Z,13.40
2023-02-17T18:57:57.140Z,13.75
2023-02-17T19:00:27.166Z,12.20
2023-02-17T19:02:56.724Z,11.53
2023-02-17T19:05:28.818Z,10.73
2023-02-17T19:07:58.748Z,10.50
2023-02-17T19:10:28.340Z,10.48
2023-02-17T19:12:57.944Z,11.15
2023-02-17T19:15:27.548Z,10.53
2023-02-17T19:18:00.282Z,11.50
2023-02-17T19:20:31.663Z,13.30
2023-02-17T19:23:02.807Z,13.68
2023-02-17T19:25:32.267Z,14.05
2023-02-17T19:28:01.690Z,17.02
2023-02-17T19:30:33.593Z,20.37
2023-02-17T19:33:03.169Z,24.43
2023-02-17T19:35:32.712Z,22.42
2023-02-17T19:38:02.205Z,20.35
2023-02-17T19:40:31.712Z,20.85
2023-02-17T19:43:03.065Z,27.60
2023-02-17T19:45:34.050Z,26.80
2023-02-17T19:48:04.419Z,25.90
2023-02-17T19:50:34.218Z,25.53
2023-02-17T19:53:03.636Z,22.73
2023-02-17T19:55:34.081Z,22.98
2023-02-17T19:58:03.564Z,25.10
2023-02-17T20:00:34.756Z,24.02
2023-02-17T20:03:04.863Z,26.65
2023-02-17T20:05:39.892Z,26.73
2023-02-17T20:08:09.462Z,27.50
2023-02-17T20:10:41.662Z,31.80
2023-02-17T20:13:11.181Z,30.53
2023-02-17T20:15:40.655Z,31.02
2023-02-17T20:18:10.435Z,31.57
2023-02-17T20:20:39.939Z,31.20
2023-02-17T20:23:09.406Z,33.28
2023-02-17T20:25:41.805Z,32.98
2023-02-17T20:30:59.582Z,37.73
2023-02-17T20:33:29.115Z,39.60
2023-02-17T20:35:58.550Z,39.92
2023-02-17T20:38:28.110Z,40.20
2023-02-17T20:40:57.596Z,39.98
2023-02-17T20:43:28.536Z,39.85
2023-02-17T20:45:58.465Z,38.65
2023-02-17T20:48:28.907Z,37.63
2023-02-17T20:51:00.295Z,37.00
2023-02-17T20:53:29.722Z,40.33
2023-02-17T20:55:59.229Z,38.85
2023-02-17T20:58:29.732Z,37.00
2023-02-17T21:00:59.327Z,39.70
2023-02-17T21:03:28.795Z,42.85
2023-02-17T21:05:59.654Z,41.68
2023-02-17T21:08:29.086Z,44.08
2023-02-17T21:10:58.711Z,41.05
2023-02-17T21:13:29.857Z,41.88
2023-02-17T21:15:59.365Z,43.63
2023-02-17T21:18:29.655Z,44.33
2023-02-17T21:20:59.128Z,43.60
2023-02-17T21:23:28.576Z,42.08
2023-02-17T21:25:58.011Z,42.40
2023-02-17T21:28:28.299Z,43.85
2023-02-17T21:30:57.796Z,43.87
2023-02-17T21:33:27.458Z,46.30
2023-02-17T21:35:58.465Z,46.40
2023-02-17T21:38:28.037Z,46.75
2023-02-17T21:40:58.992Z,48.15
2023-02-17T21:43:46.230Z,46.33
2023-02-17T21:46:15.736Z,47.53
2023-02-17T21:48:45.156Z,46.65
2023-02-17T21:51:15.664Z,48.25
2023-02-17T21:53:46.704Z,48.30
2023-02-17T21:56:17.569Z,48.52
2023-02-17T21:58:48.949Z,48.65
2023-02-17T22:01:21.770Z,46.02
2023-02-17T22:03:51.808Z,43.70
2023-02-17T22:06:25.013Z,44.42
2023-02-17T22:08:55.478Z,44.67
2023-02-17T22:11:28.086Z,43.52
2023-02-17T22:13:59.637Z,43.95
2023-02-17T22:16:32.481Z,42.67
2023-02-17T22:19:04.864Z,43.45
2023-02-17T22:21:38.628Z,43.83
2023-02-17T22:24:08.292Z,43.92
2023-02-17T22:26:37.895Z,43.13
2023-02-17T22:29:08.465Z,41.75
2023-02-17T22:31:38.312Z,42.80
2023-02-17T22:34:11.508Z,44.33
2023-02-17T22:36:42.600Z,44.55
2023-02-17T22:39:12.545Z,43.55
2023-02-17T22:41:43.497Z,40.80
2023-02-17T22:44:13.694Z,41.65
2023-02-17T22:46:43.130Z,41.28
2023-02-17T22:49:12.565Z,41.35
2023-02-17T22:51:42.249Z,38.58
2023-02-17T22:54:11.821Z,39.40
2023-02-17T22:56:41.658Z,39.23
2023-02-17T22:59:11.438Z,38.10
2023-02-17T23:01:41.310Z,39.05
2023-02-17T23:04:13.473Z,37.58
2023-02-17T23:06:43.601Z,36.68
2023-02-17T23:09:19.097Z,38.53
2023-02-17T23:11:52.282Z,36.80
2023-02-17T23:14:30.690Z,38.45
2023-02-17T23:17:03.323Z,38.10
2023-02-17T23:19:33.363Z,37.33
2023-02-17T23:22:05.792Z,35.60
2023-02-17T23:24:35.326Z,36.68
2023-02-17T23:27:06.249Z,37.73
2023-02-17T23:29:38.096Z,38.13
2023-02-17T23:32:08.499Z,33.45
2023-02-17T23:34:41.158Z,33.02
2023-02-17T23:37:10.664Z,32.58
2023-02-17T23:39:40.098Z,31.48
2023-02-17T23:42:09.628Z,30.55
2023-02-17T23:44:39.071Z,30.00
2023-02-17T23:47:08.486Z,27.77
2023-02-17T23:49:38.122Z,29.37
2023-02-17T23:52:07.607Z,29.48
2023-02-17T23:54:37.047Z,27.13
2023-02-17T23:57:07.150Z,27.50
2023-02-17T23:59:37.526Z,26.70
